Time,TemperatureF,DewpointF,PressureIn,WindDirection,WindDirectionDegrees,WindSpeedMPH,WindSpeedGustMPH,Humidity,HourlyPrecipIn,Conditions,Clouds,dailyrainin,SoftwareType,DateUTC
2013-03-22 00:00:00,39.8,19.1,29.80,NNE,17,0.0,3.0,43,0.00,,,0.00,Wunderground v.1.15,2013-03-22 04:00:00,
2013-03-22 00:01:00,39.8,19.1,29.80,NNE,17,0.0,3.0,43,0.00,,,0.00,Wunderground v.1.15,2013-03-22 04:01:00,
2013-03-22 00:02:00,39.8,19.1,29.80,NNE,17,0.0,3.0,43,0.00,,,0.00,Wunderground v.1.15,2013-03-22 04:02:00,
2013-03-22 00:05:00,39.8,19.1,29.80,NE,53,0.0,3.0,43,0.00,,,0.00,Wunderground v.1.15,2013-03-22 04:05:00,
2013-03-22 00:11:00,39.6,18.4,29.80,ENE,65,1.0,3.0,42,0.00,,,0.00,Wunderground v.1.15,2013-03-22 04:11:00,
2013-03-22 00:16:00,39.6,18.9,29.80,NE,55,1.0,5.0,43,0.00,,,0.00,Wunderground v.1.15,2013-03-22 04:16:00,
2013-03-22 00:22:00,39.6,18.9,29.80,NE,55,0.0,5.0,43,0.00,,,0.00,Wunderground v.1.15,2013-03-22 04:22:00,
2013-03-22 00:27:00,39.5,18.3,29.80,NE,55,0.0,5.0,42,0.00,,,0.00,Wunderground v.1.15,2013-03-22 04:27:00,
2013-03-22 00:32:00,39.5,18.3,29.81,NNE,33,0.0,5.0,42,0.00,,,0.00,Wunderground v.1.15,2013-03-22 04:32:00,
2013-03-22 00:38:00,39.3,18.6,29.81,NE,52,1.0,5.0,43,0.00,,,0.00,Wunderground v.1.15,2013-03-22 04:38:00,
2013-03-22 00:43:00,39.2,17.4,29.81,East,84,1.0,5.0,41,0.00,,,0.00,Wunderground v.1.15,2013-03-22 04:43:00,
2013-03-22 00:48:00,39.2,18.0,29.81,ENE,73,1.0,9.0,42,0.00,,,0.00,Wunderground v.1.15,2013-03-22 04:48:00,
2013-03-22 00:53:00,39.2,18.0,29.81,East,84,1.0,9.0,42,0.00,,,0.00,Wunderground v.1.15,2013-03-22 04:53:00,
2013-03-22 00:59:00,39.1,17.9,29.82,East,84,1.0,9.0,42,0.00,,,0.00,Wunderground v.1.15,2013-03-22 04:59:00,
2013-03-22 01:04:00,39.1,17.4,29.82,ENE,74,1.0,9.0,41,0.00,,,0.00,Wunderground v.1.15,2013-03-22 05:04:00,
2013-03-22 01:10:00,38.9,17.2,29.82,ENE,62,1.0,9.0,41,0.00,,,0.00,Wunderground v.1.15,2013-03-22 05:10:00,
2013-03-22 01:15:00,38.8,17.1,29.83,ENE,61,1.0,9.0,41,0.00,,,0.00,Wunderground v.1.15,2013-03-22 05:15:00,
2013-03-22 01:21:00,38.8,16.5,29.83,NE,34,1.0,9.0,40,0.00,,,0.00,Wunderground v.1.15,2013-03-22 05:21:00,
2013-03-22 01:27:00,38.6,17.5,29.83,East,79,1.0,6.0,42,0.00,,,0.00,Wunderground v.1.15,2013-03-22 05:27:00,
2013-03-22 01:33:00,38.3,17.2,29.83,East,79,0.0,6.0,42,0.00,,,0.00,Wunderground v.1.15,2013-03-22 05:33:00,
2013-03-22 01:39:00,38.2,18.7,29.83,East,79,0.0,6.0,45,0.00,,,0.00,Wunderground v.1.15,2013-03-22 05:39:00,
2013-03-22 01:44:00,37.8,18.8,29.83,East,90,1.0,6.0,46,0.00,,,0.00,Wunderground v.1.15,2013-03-22 05:44:00,
2013-03-22 01:50:00,37.5,18.1,29.83,ENE,57,1.0,6.0,45,0.00,,,0.00,Wunderground v.1.15,2013-03-22 05:50:00,
2013-03-22 01:56:00,37.3,18.4,29.83,NE,51,0.0,6.0,46,0.00,,,0.00,Wunderground v.1.15,2013-03-22 05:56:00,
2013-03-22 02:01:00,37.0,18.6,29.83,East,96,0.0,6.0,47,0.00,,,0.00,Wunderground v.1.15,2013-03-22 06:01:00,
2013-03-22 02:07:00,36.9,18.0,29.83,ENE,66,1.0,6.0,46,0.00,,,0.00,Wunderground v.1.15,2013-03-22 06:07:00,
2013-03-22 02:13:00,36.9,17.5,29.84,NNE,28,1.0,6.0,45,0.00,,,0.00,Wunderground v.1.15,2013-03-22 06:13:00,
2013-03-22 02:19:00,36.8,17.4,29.84,East,80,1.0,7.0,45,0.00,,,0.00,Wunderground v.1.15,2013-03-22 06:19:00,
2013-03-22 02:24:00,36.8,16.9,29.84,ESE,102,2.0,7.0,44,0.00,,,0.00,Wunderground v.1.15,2013-03-22 06:24:00,
2013-03-22 02:30:00,36.8,17.4,29.84,ESE,103,1.0,7.0,45,0.00,,,0.00,Wunderground v.1.15,2013-03-22 06:30:00,
2013-03-22 02:35:00,36.6,17.2,29.84,ENE,63,1.0,7.0,45,0.00,,,0.00,Wunderground v.1.15,2013-03-22 06:35:00,
2013-03-22 02:41:00,36.5,16.6,29.84,ENE,75,2.0,7.0,44,0.00,,,0.00,Wunderground v.1.15,2013-03-22 06:41:00,
2013-03-22 02:46:00,36.3,16.4,29.84,East,94,1.0,7.0,44,0.00,,,0.00,Wunderground v.1.15,2013-03-22 06:46:00,
2013-03-22 02:51:00,36.3,17.0,29.84,ENE,65,1.0,11.0,45,0.00,,,0.00,Wunderground v.1.15,2013-03-22 06:51:00,
2013-03-22 02:57:00,36.2,15.8,29.84,ENE,78,1.0,11.0,43,0.00,,,0.00,Wunderground v.1.15,2013-03-22 06:57:00,
2013-03-22 03:03:00,36.0,15.6,29.84,ENE,73,1.0,11.0,43,0.00,,,0.00,Wunderground v.1.15,2013-03-22 07:03:00,
2013-03-22 03:09:00,35.9,15.5,29.84,ENE,71,1.0,11.0,43,0.00,,,0.00,Wunderground v.1.15,2013-03-22 07:09:00,
2013-03-22 03:14:00,35.8,16.0,29.84,ENE,61,1.0,11.0,44,0.00,,,0.00,Wunderground v.1.15,2013-03-22 07:14:00,
2013-03-22 03:20:00,35.6,15.3,29.84,ENE,59,1.0,11.0,43,0.00,,,0.00,Wunderground v.1.15,2013-03-22 07:20:00,
2013-03-22 03:26:00,35.5,15.7,29.84,ESE,109,1.0,7.0,44,0.00,,,0.00,Wunderground v.1.15,2013-03-22 07:26:00,
2013-03-22 03:31:00,35.5,16.2,29.84,NE,46,1.0,7.0,45,0.00,,,0.00,Wunderground v.1.15,2013-03-22 07:31:00,
2013-03-22 03:37:00,35.2,16.0,29.84,ENE,65,1.0,7.0,45,0.00,,,0.00,Wunderground v.1.15,2013-03-22 07:37:00,
2013-03-22 03:42:00,35.0,15.8,29.84,ENE,65,0.0,7.0,45,0.00,,,0.00,Wunderground v.1.15,2013-03-22 07:42:00,
2013-03-22 03:47:00,34.9,16.2,29.84,ENE,66,0.0,7.0,46,0.00,,,0.00,Wunderground v.1.15,2013-03-22 07:47:00,
2013-03-22 03:53:00,34.7,17.0,29.84,ENE,66,1.0,6.0,48,0.00,,,0.00,Wunderground v.1.15,2013-03-22 07:53:00,
2013-03-22 03:58:00,34.6,16.4,29.85,ENE,66,0.0,6.0,47,0.00,,,0.00,Wunderground v.1.15,2013-03-22 07:58:00,
2013-03-22 04:03:00,34.4,16.2,29.85,ENE,66,0.0,6.0,47,0.00,,,0.00,Wunderground v.1.15,2013-03-22 08:03:00,
2013-03-22 04:08:00,34.3,16.6,29.85,ENE,66,0.0,6.0,48,0.00,,,0.00,Wunderground v.1.15,2013-03-22 08:08:00,
2013-03-22 04:14:00,34.1,16.4,29.86,ENE,66,0.0,6.0,48,0.00,,,0.00,Wunderground v.1.15,2013-03-22 08:14:00,
2013-03-22 04:20:00,34.0,15.9,29.86,ENE,66,0.0,6.0,47,0.00,,,0.00,Wunderground v.1.15,2013-03-22 08:20:00,
2013-03-22 04:25:00,33.8,16.6,29.86,ENE,66,0.0,3.0,49,0.00,,,0.00,Wunderground v.1.15,2013-03-22 08:25:00,
2013-03-22 04:31:00,33.5,16.4,29.86,ENE,66,0.0,3.0,49,0.00,,,0.00,Wunderground v.1.15,2013-03-22 08:31:00,
2013-03-22 04:36:00,33.2,16.5,29.86,ENE,66,0.0,3.0,50,0.00,,,0.00,Wunderground v.1.15,2013-03-22 08:36:00,
2013-03-22 04:42:00,32.9,16.7,29.86,ENE,66,0.0,3.0,51,0.00,,,0.00,Wunderground v.1.15,2013-03-22 08:42:00,
2013-03-22 04:47:00,32.7,17.0,29.86,ENE,66,0.0,3.0,52,0.00,,,0.00,Wunderground v.1.15,2013-03-22 08:47:00,
2013-03-22 04:53:00,32.4,16.7,29.86,ENE,66,0.0,1.0,52,0.00,,,0.00,Wunderground v.1.15,2013-03-22 08:53:00,
2013-03-22 04:58:00,32.2,16.5,29.87,ENE,66,0.0,1.0,52,0.00,,,0.00,Wunderground v.1.15,2013-03-22 08:58:00,
2013-03-22 05:04:00,32.1,16.4,29.87,ENE,66,0.0,1.0,52,0.00,,,0.00,Wunderground v.1.15,2013-03-22 09:04:00,
2013-03-22 05:10:00,32.1,18.2,29.87,ENE,66,0.0,1.0,56,0.00,,,0.00,Wunderground v.1.15,2013-03-22 09:10:00,
2013-03-22 05:16:00,31.9,18.0,29.88,ENE,66,0.0,1.0,56,0.00,,,0.00,Wunderground v.1.15,2013-03-22 09:16:00,
2013-03-22 05:22:00,31.9,17.1,29.88,ENE,66,0.0,3.0,54,0.00,,,0.00,Wunderground v.1.15,2013-03-22 09:22:00,
2013-03-22 05:27:00,31.8,17.0,29.88,ENE,66,0.0,3.0,54,0.00,,,0.00,Wunderground v.1.15,2013-03-22 09:27:00,
2013-03-22 05:33:00,31.6,16.8,29.88,ENE,66,0.0,3.0,54,0.00,,,0.00,Wunderground v.1.15,2013-03-22 09:33:00,
2013-03-22 05:38:00,31.5,16.7,29.88,ENE,66,0.0,3.0,54,0.00,,,0.00,Wunderground v.1.15,2013-03-22 09:38:00,
2013-03-22 05:43:00,31.5,17.2,29.88,ENE,66,0.0,3.0,55,0.00,,,0.00,Wunderground v.1.15,2013-03-22 09:43:00,
2013-03-22 05:48:00,31.3,17.4,29.89,ENE,66,0.0,3.0,56,0.00,,,0.00,Wunderground v.1.15,2013-03-22 09:48:00,
2013-03-22 05:53:00,31.2,17.3,29.89,ENE,66,0.0,0.0,56,0.00,,,0.00,Wunderground v.1.15,2013-03-22 09:53:00,
2013-03-22 05:58:00,31.2,18.1,29.89,ENE,66,0.0,0.0,58,0.00,,,0.00,Wunderground v.1.15,2013-03-22 09:58:00,
2013-03-22 06:03:00,31.2,19.3,29.89,ENE,66,0.0,0.0,61,0.00,,,0.00,Wunderground v.1.15,2013-03-22 10:03:00,
2013-03-22 06:08:00,31.2,19.7,29.89,ENE,66,0.0,0.0,62,0.00,,,0.00,Wunderground v.1.15,2013-03-22 10:08:00,
2013-03-22 06:13:00,31.2,20.1,29.90,ENE,66,0.0,0.0,63,0.00,,,0.00,Wunderground v.1.15,2013-03-22 10:13:00,
2013-03-22 06:19:00,31.2,20.1,29.90,ENE,66,0.0,1.0,63,0.00,,,0.00,Wunderground v.1.15,2013-03-22 10:19:00,
2013-03-22 06:24:00,31.0,19.9,29.90,ENE,66,0.0,1.0,63,0.00,,,0.00,Wunderground v.1.15,2013-03-22 10:24:00,
2013-03-22 06:30:00,31.0,19.1,29.91,ENE,66,0.0,1.0,61,0.00,,,0.00,Wunderground v.1.15,2013-03-22 10:30:00,
2013-03-22 06:36:00,30.9,18.2,29.91,ENE,66,0.0,1.0,59,0.00,,,0.00,Wunderground v.1.15,2013-03-22 10:36:00,
2013-03-22 06:41:00,30.9,17.8,29.91,ENE,66,0.0,1.0,58,0.00,,,0.00,Wunderground v.1.15,2013-03-22 10:41:00,
2013-03-22 06:46:00,30.7,17.7,29.91,ENE,66,0.0,1.0,58,0.00,,,0.00,Wunderground v.1.15,2013-03-22 10:46:00,
2013-03-22 06:51:00,30.7,17.3,29.91,ENE,66,0.0,1.0,57,0.00,,,0.00,Wunderground v.1.15,2013-03-22 10:51:00,
2013-03-22 06:57:00,30.6,17.6,29.91,ENE,66,0.0,0.0,58,0.00,,,0.00,Wunderground v.1.15,2013-03-22 10:57:00,
2013-03-22 07:02:00,30.6,18.3,29.92,ENE,66,0.0,0.0,60,0.00,,,0.00,Wunderground v.1.15,2013-03-22 11:02:00,
2013-03-22 07:07:00,30.6,19.5,29.92,ENE,66,0.0,0.0,63,0.00,,,0.00,Wunderground v.1.15,2013-03-22 11:07:00,
2013-03-22 07:13:00,30.6,19.5,29.92,ENE,66,0.0,0.0,63,0.00,,,0.00,Wunderground v.1.15,2013-03-22 11:13:00,
2013-03-22 07:19:00,30.6,19.9,29.93,ENE,66,0.0,0.0,64,0.00,,,0.00,Wunderground v.1.15,2013-03-22 11:19:00,
2013-03-22 07:25:00,30.4,20.0,29.93,ENE,66,0.0,0.0,65,0.00,,,0.00,Wunderground v.1.15,2013-03-22 11:25:00,
2013-03-22 07:30:00,30.4,20.0,29.94,ENE,66,0.0,0.0,65,0.00,,,0.00,Wunderground v.1.15,2013-03-22 11:30:00,
2013-03-22 07:35:00,30.4,20.4,29.94,ENE,66,0.0,0.0,66,0.00,,,0.00,Wunderground v.1.15,2013-03-22 11:35:00,
2013-03-22 07:40:00,30.4,20.0,29.94,ENE,66,0.0,0.0,65,0.00,,,0.00,Wunderground v.1.15,2013-03-22 11:40:00,
2013-03-22 07:47:00,30.3,19.9,29.94,ENE,66,0.0,0.0,65,0.00,,,0.00,Wunderground v.1.15,2013-03-22 11:47:00,
2013-03-22 07:52:00,30.4,20.0,29.94,ENE,66,0.0,0.0,65,0.00,,,0.00,Wunderground v.1.15,2013-03-22 11:52:00,
2013-03-22 07:58:00,30.6,20.2,29.94,ENE,66,0.0,0.0,65,0.00,,,0.00,Wunderground v.1.15,2013-03-22 11:58:00,
2013-03-22 08:04:00,30.7,20.3,29.94,ENE,66,0.0,0.0,65,0.00,,,0.00,Wunderground v.1.15,2013-03-22 12:04:00,
2013-03-22 08:10:00,31.0,20.6,29.94,ENE,66,0.0,0.0,65,0.00,,,0.00,Wunderground v.1.15,2013-03-22 12:10:00,
2013-03-22 08:15:00,31.5,20.3,29.94,ENE,66,0.0,0.0,63,0.00,,,0.00,Wunderground v.1.15,2013-03-22 12:15:00,
2013-03-22 08:21:00,31.9,20.3,29.94,ENE,66,0.0,0.0,62,0.00,,,0.00,Wunderground v.1.15,2013-03-22 12:21:00,
2013-03-22 08:27:00,32.5,20.9,29.94,ENE,66,0.0,0.0,62,0.00,,,0.00,Wunderground v.1.15,2013-03-22 12:27:00,
2013-03-22 08:33:00,33.1,20.3,29.95,ENE,66,0.0,0.0,59,0.00,,,0.00,Wunderground v.1.15,2013-03-22 12:33:00,
2013-03-22 08:38:00,33.4,19.8,29.95,ENE,66,0.0,2.0,57,0.00,,,0.00,Wunderground v.1.15,2013-03-22 12:38:00,
2013-03-22 08:44:00,33.7,19.7,29.95,ENE,66,0.0,0.0,56,0.00,,,0.00,Wunderground v.1.15,2013-03-22 12:44:00,
2013-03-22 08:50:00,34.0,19.9,29.95,ENE,66,0.0,0.0,56,0.00,,,0.00,Wunderground v.1.15,2013-03-22 12:50:00,
2013-03-22 08:55:00,34.4,19.9,29.95,North,10,0.0,0.0,55,0.00,,,0.00,Wunderground v.1.15,2013-03-22 12:55:00,
2013-03-22 09:01:00,35.2,18.9,29.95,NNE,16,0.0,1.0,51,0.00,,,0.00,Wunderground v.1.15,2013-03-22 13:01:00,
2013-03-22 09:06:00,36.2,18.4,29.95,ENE,60,0.0,2.0,48,0.00,,,0.00,Wunderground v.1.15,2013-03-22 13:06:00,
2013-03-22 09:12:00,37.3,17.9,29.95,SSE,164,1.0,1.0,45,0.00,,,0.00,Wunderground v.1.15,2013-03-22 13:12:00,
2013-03-22 09:18:00,38.3,16.6,29.94,ESE,121,1.0,3.0,41,0.00,,,0.00,Wunderground v.1.15,2013-03-22 13:18:00,
2013-03-22 09:23:00,38.9,16.6,29.94,ENE,69,2.0,3.0,40,0.00,,,0.00,Wunderground v.1.15,2013-03-22 13:23:00,
2013-03-22 09:28:00,39.3,15.8,29.94,ENE,58,2.0,5.0,38,0.00,,,0.00,Wunderground v.1.15,2013-03-22 13:28:00,
2013-03-22 09:33:00,39.3,15.8,29.94,East,99,2.0,2.0,38,0.00,,,0.00,Wunderground v.1.15,2013-03-22 13:33:00,
2013-03-22 09:39:00,39.3,15.8,29.94,ENE,72,1.0,4.0,38,0.00,,,0.00,Wunderground v.1.15,2013-03-22 13:39:00,
2013-03-22 09:44:00,39.8,15.0,29.94,East,83,2.0,6.0,36,0.00,,,0.00,Wunderground v.1.15,2013-03-22 13:44:00,
2013-03-22 09:50:00,40.2,16.6,29.94,SE,136,1.0,6.0,38,0.00,,,0.00,Wunderground v.1.15,2013-03-22 13:50:00,
2013-03-22 09:56:00,40.8,15.2,29.94,SE,130,2.0,3.0,35,0.00,,,0.00,Wunderground v.1.15,2013-03-22 13:56:00,
2013-03-22 10:01:00,41.2,14.9,29.95,SE,130,1.0,3.0,34,0.00,,,0.00,Wunderground v.1.15,2013-03-22 14:01:00,
2013-03-22 10:06:00,41.3,13.6,29.95,NNW,335,1.0,3.0,32,0.00,,,0.00,Wunderground v.1.15,2013-03-22 14:06:00,
2013-03-22 10:12:00,40.9,13.3,29.95,NE,34,1.0,1.0,32,0.00,,,0.00,Wunderground v.1.15,2013-03-22 14:12:00,
2013-03-22 10:18:00,41.2,14.9,29.95,East,84,1.0,4.0,34,0.00,,,0.00,Wunderground v.1.15,2013-03-22 14:18:00,
2013-03-22 10:23:00,42.1,13.6,29.95,NE,53,2.0,2.0,31,0.00,,,0.00,Wunderground v.1.15,2013-03-22 14:23:00,
2013-03-22 10:28:00,42.1,14.3,29.95,East,84,2.0,3.0,32,0.00,,,0.00,Wunderground v.1.15,2013-03-22 14:28:00,
2013-03-22 10:34:00,42.2,14.4,29.94,NE,56,2.0,2.0,32,0.00,,,0.00,Wunderground v.1.15,2013-03-22 14:34:00,
2013-03-22 10:40:00,42.2,14.4,29.94,ENE,59,1.0,2.0,32,0.00,,,0.00,Wunderground v.1.15,2013-03-22 14:40:00,
2013-03-22 10:46:00,42.6,14.8,29.94,ESE,106,2.0,6.0,32,0.00,,,0.00,Wunderground v.1.15,2013-03-22 14:46:00,
2013-03-22 10:51:00,42.9,15.0,29.94,ENE,73,2.0,6.0,32,0.00,,,0.00,Wunderground v.1.15,2013-03-22 14:51:00,
2013-03-22 10:56:00,43.3,14.6,29.94,North,5,2.0,7.0,31,0.00,,,0.00,Wunderground v.1.15,2013-03-22 14:56:00,
2013-03-22 11:02:00,43.5,14.1,29.94,NE,36,2.0,2.0,30,0.00,,,0.00,Wunderground v.1.15,2013-03-22 15:02:00,
2013-03-22 11:07:00,43.6,14.2,29.94,ENE,69,1.0,5.0,30,0.00,,,0.00,Wunderground v.1.15,2013-03-22 15:07:00,
2013-03-22 11:13:00,43.9,13.6,29.94,East,93,1.0,1.0,29,0.00,,,0.00,Wunderground v.1.15,2013-03-22 15:13:00,
2013-03-22 11:18:00,44.3,15.5,29.94,East,85,1.0,2.0,31,0.00,,,0.00,Wunderground v.1.15,2013-03-22 15:18:00,
2013-03-22 11:23:00,44.6,14.3,29.94,ENE,63,2.0,2.0,29,0.00,,,0.00,Wunderground v.1.15,2013-03-22 15:23:00,
2013-03-22 11:28:00,45.1,14.7,29.94,ENE,71,2.0,4.0,29,0.00,,,0.00,Wunderground v.1.15,2013-03-22 15:28:00,
2013-03-22 11:33:00,45.4,13.3,29.93,ENE,71,1.0,2.0,27,0.00,,,0.00,Wunderground v.1.15,2013-03-22 15:33:00,
2013-03-22 11:38:00,45.7,14.4,29.93,ENE,78,2.0,6.0,28,0.00,,,0.00,Wunderground v.1.15,2013-03-22 15:38:00,
2013-03-22 11:44:00,46.1,13.9,29.93,ENE,59,3.0,4.0,27,0.00,,,0.00,Wunderground v.1.15,2013-03-22 15:44:00,
2013-03-22 11:50:00,46.2,14.8,29.93,NE,36,2.0,6.0,28,0.00,,,0.00,Wunderground v.1.15,2013-03-22 15:50:00,
2013-03-22 11:55:00,46.4,14.2,29.93,NNE,22,2.0,2.0,27,0.00,,,0.00,Wunderground v.1.15,2013-03-22 15:55:00,
2013-03-22 12:01:00,46.2,14.0,29.94,NW,323,2.0,4.0,27,0.00,,,0.00,Wunderground v.1.15,2013-03-22 16:01:00,
2013-03-22 12:06:00,45.8,14.5,29.94,WSW,246,3.0,5.0,28,0.00,,,0.00,Wunderground v.1.15,2013-03-22 16:06:00,
2013-03-22 12:11:00,45.7,14.4,29.94,WNW,298,3.0,7.0,28,0.00,,,0.00,Wunderground v.1.15,2013-03-22 16:11:00,
2013-03-22 12:16:00,45.7,15.2,29.94,NNW,345,3.0,5.0,29,0.00,,,0.00,Wunderground v.1.15,2013-03-22 16:16:00,
2013-03-22 12:21:00,45.8,13.7,29.94,WNW,292,3.0,5.0,27,0.00,,,0.00,Wunderground v.1.15,2013-03-22 16:21:00,
2013-03-22 12:26:00,45.8,14.5,29.94,NW,311,3.0,4.0,28,0.00,,,0.00,Wunderground v.1.15,2013-03-22 16:26:00,
2013-03-22 12:31:00,45.8,16.8,29.94,NNW,329,3.0,5.0,31,0.00,,,0.00,Wunderground v.1.15,2013-03-22 16:31:00,
2013-03-22 12:37:00,46.0,13.8,29.94,SE,127,3.0,4.0,27,0.00,,,0.00,Wunderground v.1.15,2013-03-22 16:37:00,
2013-03-22 12:43:00,46.2,14.8,29.94,West,274,2.0,2.0,28,0.00,,,0.00,Wunderground v.1.15,2013-03-22 16:43:00,
2013-03-22 12:49:00,47.0,15.5,29.92,NE,56,2.0,5.0,28,0.00,,,0.00,Wunderground v.1.15,2013-03-22 16:49:00,
2013-03-22 12:55:00,48.3,16.7,29.92,SE,134,2.0,3.0,28,0.00,,,0.00,Wunderground v.1.15,2013-03-22 16:55:00,
2013-03-22 13:01:00,49.4,15.9,29.92,NE,38,1.0,3.0,26,0.00,,,0.00,Wunderground v.1.15,2013-03-22 17:01:00,
2013-03-22 13:07:00,49.8,16.2,29.92,East,98,1.0,4.0,26,0.00,,,0.00,Wunderground v.1.15,2013-03-22 17:07:00,
2013-03-22 13:13:00,49.9,17.2,29.92,NNW,336,2.0,3.0,27,0.00,,,0.00,Wunderground v.1.15,2013-03-22 17:13:00,
2013-03-22 13:19:00,49.5,16.0,29.92,NNE,31,2.0,4.0,26,0.00,,,0.00,Wunderground v.1.15,2013-03-22 17:19:00,
2013-03-22 13:25:00,49.9,17.2,29.92,NE,37,2.0,2.0,27,0.00,,,0.00,Wunderground v.1.15,2013-03-22 17:25:00,
2013-03-22 13:31:00,50.4,15.8,29.92,West,277,1.0,2.0,25,0.00,,,0.00,Wunderground v.1.15,2013-03-22 17:31:00,
2013-03-22 13:36:00,50.8,17.1,29.92,NW,316,1.0,4.0,26,0.00,,,0.00,Wunderground v.1.15,2013-03-22 17:36:00,
2013-03-22 13:42:00,51.6,15.9,29.92,SE,136,2.0,3.0,24,0.00,,,0.00,Wunderground v.1.15,2013-03-22 17:42:00,
2013-03-22 13:48:00,51.4,21.7,29.91,SSW,211,3.0,5.0,31,0.00,,,0.00,Wunderground v.1.15,2013-03-22 17:48:00,
2013-03-22 13:53:00,50.4,22.3,29.91,South,173,3.0,4.0,33,0.00,,,0.00,Wunderground v.1.15,2013-03-22 17:53:00,
2013-03-22 13:59:00,50.7,23.3,29.89,SE,134,3.0,6.0,34,0.00,,,0.00,Wunderground v.1.15,2013-03-22 17:59:00,
2013-03-22 14:04:00,51.0,24.3,29.89,SSE,159,4.0,5.0,35,0.00,,,0.00,Wunderground v.1.15,2013-03-22 18:04:00,
2013-03-22 14:10:00,51.3,23.1,29.89,South,190,4.0,7.0,33,0.00,,,0.00,Wunderground v.1.15,2013-03-22 18:10:00,
2013-03-22 14:17:00,50.8,22.7,29.89,South,172,4.0,9.0,33,0.00,,,0.00,Wunderground v.1.15,2013-03-22 18:17:00,
2013-03-22 14:23:00,49.9,24.0,29.89,SSW,199,4.0,6.0,36,0.00,,,0.00,Wunderground v.1.15,2013-03-22 18:23:00,
2013-03-22 14:28:00,49.6,23.7,29.89,SSW,197,4.0,7.0,36,0.00,,,0.00,Wunderground v.1.15,2013-03-22 18:28:00,
2013-03-22 14:33:00,49.6,23.0,29.90,SE,144,4.0,10.0,35,0.00,,,0.00,Wunderground v.1.15,2013-03-22 18:33:00,
2013-03-22 14:38:00,49.8,24.5,29.90,SSW,193,4.0,10.0,37,0.00,,,0.00,Wunderground v.1.15,2013-03-22 18:38:00,
2013-03-22 14:43:00,50.5,23.8,29.90,SSW,207,4.0,6.0,35,0.00,,,0.00,Wunderground v.1.15,2013-03-22 18:43:00,
2013-03-22 14:49:00,50.2,24.9,29.90,SE,139,5.0,9.0,37,0.00,,,0.00,Wunderground v.1.15,2013-03-22 18:49:00,
2013-03-22 14:54:00,50.5,24.5,29.90,SSW,213,5.0,8.0,36,0.00,,,0.00,Wunderground v.1.15,2013-03-22 18:54:00,
2013-03-22 15:00:00,50.2,24.9,29.90,SE,142,4.0,8.0,37,0.00,,,0.00,Wunderground v.1.15,2013-03-22 19:00:00,
2013-03-22 15:05:00,50.5,25.2,29.90,SSE,153,4.0,6.0,37,0.00,,,0.00,Wunderground v.1.15,2013-03-22 19:05:00,
2013-03-22 15:10:00,50.5,25.2,29.90,SW,215,4.0,6.0,37,0.00,,,0.00,Wunderground v.1.15,2013-03-22 19:10:00,
2013-03-22 15:17:00,49.9,25.3,29.88,SSW,199,4.0,9.0,38,0.00,,,0.00,Wunderground v.1.15,2013-03-22 19:17:00,
2013-03-22 15:22:00,49.9,25.3,29.88,SSE,165,4.0,4.0,38,0.00,,,0.00,Wunderground v.1.15,2013-03-22 19:22:00,
2013-03-22 15:27:00,50.1,25.5,29.88,South,175,4.0,6.0,38,0.00,,,0.00,Wunderground v.1.15,2013-03-22 19:27:00,
2013-03-22 15:33:00,50.1,26.1,29.88,South,190,4.0,4.0,39,0.00,,,0.00,Wunderground v.1.15,2013-03-22 19:33:00,
2013-03-22 15:39:00,49.8,25.8,29.88,SSW,195,5.0,10.0,39,0.00,,,0.00,Wunderground v.1.15,2013-03-22 19:39:00,
2013-03-22 15:44:00,49.5,26.7,29.88,SW,218,4.0,5.0,41,0.00,,,0.00,Wunderground v.1.15,2013-03-22 19:44:00,
2013-03-22 15:50:00,49.5,27.3,29.88,SSE,150,3.0,6.0,42,0.00,,,0.00,Wunderground v.1.15,2013-03-22 19:50:00,
2013-03-22 15:55:00,48.8,27.8,29.88,SE,140,4.0,9.0,44,0.00,,,0.00,Wunderground v.1.15,2013-03-22 19:55:00,
2013-03-22 16:01:00,48.9,27.9,29.88,South,177,4.0,9.0,44,0.00,,,0.00,Wunderground v.1.15,2013-03-22 20:01:00,
2013-03-22 16:06:00,49.4,28.4,29.88,South,169,4.0,6.0,44,0.00,,,0.00,Wunderground v.1.15,2013-03-22 20:06:00,
2013-03-22 16:12:00,49.6,26.8,29.88,WSW,257,5.0,5.0,41,0.00,,,0.00,Wunderground v.1.15,2013-03-22 20:12:00,
2013-03-22 16:18:00,49.6,27.4,29.88,SW,228,5.0,5.0,42,0.00,,,0.00,Wunderground v.1.15,2013-03-22 20:18:00,
2013-03-22 16:24:00,49.6,27.4,29.88,South,190,5.0,5.0,42,0.00,,,0.00,Wunderground v.1.15,2013-03-22 20:24:00,
2013-03-22 16:29:00,49.9,27.1,29.87,SSE,168,4.0,5.0,41,0.00,,,0.00,Wunderground v.1.15,2013-03-22 20:29:00,
2013-03-22 16:34:00,49.5,26.7,29.87,SW,226,4.0,4.0,41,0.00,,,0.00,Wunderground v.1.15,2013-03-22 20:34:00,
2013-03-22 16:40:00,48.9,26.2,29.87,SSW,192,4.0,6.0,41,0.00,,,0.00,Wunderground v.1.15,2013-03-22 20:40:00,
2013-03-22 16:46:00,49.1,27.0,29.87,South,169,4.0,9.0,42,0.00,,,0.00,Wunderground v.1.15,2013-03-22 20:46:00,
2013-03-22 16:52:00,49.4,26.7,29.87,South,187,4.0,4.0,41,0.00,,,0.00,Wunderground v.1.15,2013-03-22 20:52:00,
2013-03-22 16:58:00,50.2,28.0,29.87,South,171,2.0,4.0,42,0.00,,,0.00,Wunderground v.1.15,2013-03-22 20:58:00,
2013-03-22 17:04:00,50.2,28.0,29.87,SW,236,2.0,5.0,42,0.00,,,0.00,Wunderground v.1.15,2013-03-22 21:04:00,
2013-03-22 17:09:00,50.4,29.3,29.87,SE,144,3.0,5.0,44,0.00,,,0.00,Wunderground v.1.15,2013-03-22 21:09:00,
2013-03-22 17:15:00,51.0,28.1,29.87,SW,223,2.0,2.0,41,0.00,,,0.00,Wunderground v.1.15,2013-03-22 21:15:00,
2013-03-22 17:21:00,51.0,28.7,29.87,SSW,202,1.0,5.0,42,0.00,,,0.00,Wunderground v.1.15,2013-03-22 21:21:00,
2013-03-22 17:26:00,51.3,28.4,29.87,West,264,2.0,3.0,41,0.00,,,0.00,Wunderground v.1.15,2013-03-22 21:26:00,
2013-03-22 17:32:00,51.6,29.2,29.86,West,268,2.0,2.0,42,0.00,,,0.00,Wunderground v.1.15,2013-03-22 21:32:00,
2013-03-22 17:37:00,51.6,28.6,29.86,SW,216,2.0,6.0,41,0.00,,,0.00,Wunderground v.1.15,2013-03-22 21:37:00,
2013-03-22 17:42:00,51.4,28.5,29.86,SSW,196,3.0,5.0,41,0.00,,,0.00,Wunderground v.1.15,2013-03-22 21:42:00,
2013-03-22 17:47:00,51.0,29.3,29.87,SSW,211,3.0,5.0,43,0.00,,,0.00,Wunderground v.1.15,2013-03-22 21:47:00,
2013-03-22 17:53:00,50.5,29.4,29.87,West,267,2.0,3.0,44,0.00,,,0.00,Wunderground v.1.15,2013-03-22 21:53:00,
2013-03-22 17:58:00,50.2,30.2,29.87,SW,217,2.0,3.0,46,0.00,,,0.00,Wunderground v.1.15,2013-03-22 21:58:00,
2013-03-22 18:03:00,50.4,30.4,29.86,SSW,209,2.0,5.0,46,0.00,,,0.00,Wunderground v.1.15,2013-03-22 22:03:00,
2013-03-22 18:08:00,50.4,30.9,29.86,SW,217,2.0,5.0,47,0.00,,,0.00,Wunderground v.1.15,2013-03-22 22:08:00,
2013-03-22 18:13:00,50.7,31.2,29.86,West,274,2.0,2.0,47,0.00,,,0.00,Wunderground v.1.15,2013-03-22 22:13:00,
2013-03-22 18:18:00,50.5,31.5,29.87,WSW,254,2.0,5.0,48,0.00,,,0.00,Wunderground v.1.15,2013-03-22 22:18:00,
2013-03-22 18:24:00,49.9,31.5,29.87,SSW,209,2.0,4.0,49,0.00,,,0.00,Wunderground v.1.15,2013-03-22 22:24:00,
2013-03-22 18:30:00,49.4,32.0,29.86,SW,217,3.0,9.0,51,0.00,,,0.00,Wunderground v.1.15,2013-03-22 22:30:00,
2013-03-22 18:35:00,49.1,32.2,29.86,SW,232,3.0,4.0,52,0.00,,,0.00,Wunderground v.1.15,2013-03-22 22:35:00,
2013-03-22 18:40:00,49.2,32.3,29.86,SW,232,2.0,4.0,52,0.00,,,0.00,Wunderground v.1.15,2013-03-22 22:40:00,
2013-03-22 18:46:00,49.5,32.6,29.87,SW,225,1.0,3.0,52,0.00,,,0.00,Wunderground v.1.15,2013-03-22 22:46:00,
2013-03-22 18:51:00,49.4,33.0,29.87,SSW,203,2.0,4.0,53,0.00,,,0.00,Wunderground v.1.15,2013-03-22 22:51:00,
2013-03-22 18:56:00,49.2,32.8,29.87,SSW,212,2.0,4.0,53,0.00,,,0.00,Wunderground v.1.15,2013-03-22 22:56:00,
2013-03-22 19:01:00,49.2,32.8,29.87,SSW,212,1.0,4.0,53,0.00,,,0.00,Wunderground v.1.15,2013-03-22 23:01:00,
2013-03-22 19:06:00,48.9,33.0,29.87,SSW,211,2.0,3.0,54,0.00,,,0.00,Wunderground v.1.15,2013-03-22 23:06:00,
2013-03-22 19:11:00,48.6,32.7,29.87,SSW,212,1.0,4.0,54,0.00,,,0.00,Wunderground v.1.15,2013-03-22 23:11:00,
2013-03-22 19:16:00,48.5,33.1,29.87,SSW,212,1.0,1.0,55,0.00,,,0.00,Wunderground v.1.15,2013-03-22 23:16:00,
2013-03-22 19:21:00,48.2,32.8,29.87,SSW,212,0.0,2.0,55,0.00,,,0.00,Wunderground v.1.15,2013-03-22 23:21:00,
2013-03-22 19:27:00,47.9,33.4,29.87,SSW,212,0.0,0.0,57,0.00,,,0.00,Wunderground v.1.15,2013-03-22 23:27:00,
2013-03-22 19:32:00,47.7,33.2,29.87,SSW,212,0.0,0.0,57,0.00,,,0.00,Wunderground v.1.15,2013-03-22 23:32:00,
2013-03-22 19:38:00,47.4,33.8,29.87,SSW,212,0.0,0.0,59,0.00,,,0.00,Wunderground v.1.15,2013-03-22 23:38:00,
2013-03-22 19:43:00,47.3,33.7,29.87,SSW,212,0.0,0.0,59,0.00,,,0.00,Wunderground v.1.15,2013-03-22 23:43:00,
2013-03-22 19:48:00,47.1,33.9,29.87,SSW,212,0.0,0.0,60,0.00,,,0.00,Wunderground v.1.15,2013-03-22 23:48:00,
2013-03-22 19:53:00,47.1,33.9,29.87,SSW,212,0.0,1.0,60,0.00,,,0.00,Wunderground v.1.15,2013-03-22 23:53:00,
2013-03-22 19:58:00,47.0,33.8,29.87,SSW,212,0.0,1.0,60,0.00,,,0.00,Wunderground v.1.15,2013-03-22 23:58:00,
2013-03-22 20:03:00,47.0,33.8,29.88,SSW,212,0.0,0.0,60,0.00,,,0.00,Wunderground v.1.15,2013-03-23 00:03:00,
2013-03-22 20:09:00,46.8,34.0,29.88,SSW,212,0.0,1.0,61,0.00,,,0.00,Wunderground v.1.15,2013-03-23 00:09:00,
2013-03-22 20:14:00,46.7,34.4,29.88,SSW,212,0.0,1.0,62,0.00,,,0.00,Wunderground v.1.15,2013-03-23 00:14:00,
2013-03-22 20:19:00,46.7,34.4,29.88,SSW,212,0.0,3.0,62,0.00,,,0.00,Wunderground v.1.15,2013-03-23 00:19:00,
2013-03-22 20:24:00,46.7,34.4,29.88,SSW,212,0.0,4.0,62,0.00,,,0.00,Wunderground v.1.15,2013-03-23 00:24:00,
2013-03-22 20:29:00,46.5,34.2,29.88,SSW,212,1.0,4.0,62,0.00,,,0.00,Wunderground v.1.15,2013-03-23 00:29:00,
2013-03-22 20:35:00,46.5,34.2,29.88,SSW,212,0.0,1.0,62,0.00,,,0.00,Wunderground v.1.15,2013-03-23 00:35:00,
2013-03-22 20:40:00,46.7,34.8,29.88,SSW,212,0.0,2.0,63,0.00,,,0.00,Wunderground v.1.15,2013-03-23 00:40:00,
2013-03-22 20:45:00,46.7,34.8,29.89,SSW,212,0.0,0.0,63,0.00,,,0.00,Wunderground v.1.15,2013-03-23 00:45:00,
2013-03-22 20:51:00,46.8,34.5,29.89,SSW,212,0.0,1.0,62,0.00,,,0.00,Wunderground v.1.15,2013-03-23 00:51:00,
2013-03-22 20:56:00,46.8,34.9,29.89,SSW,212,1.0,1.0,63,0.00,,,0.00,Wunderground v.1.15,2013-03-23 00:56:00,
2013-03-22 21:02:00,47.0,35.0,29.89,SSW,212,1.0,1.0,63,0.00,,,0.00,Wunderground v.1.15,2013-03-23 01:02:00,
2013-03-22 21:08:00,47.0,35.0,29.89,SSW,212,1.0,1.0,63,0.00,,,0.00,Wunderground v.1.15,2013-03-23 01:08:00,
2013-03-22 21:14:00,47.1,35.1,29.89,SSW,212,1.0,1.0,63,0.00,,,0.00,Wunderground v.1.15,2013-03-23 01:14:00,
2013-03-22 21:19:00,47.1,35.5,29.89,SSW,212,1.0,3.0,64,0.00,,,0.00,Wunderground v.1.15,2013-03-23 01:19:00,
2013-03-22 21:25:00,47.3,35.7,29.89,SSW,211,1.0,1.0,64,0.00,,,0.00,Wunderground v.1.15,2013-03-23 01:25:00,
2013-03-22 21:30:00,47.3,35.7,29.89,SSW,213,1.0,4.0,64,0.00,,,0.00,Wunderground v.1.15,2013-03-23 01:30:00,
2013-03-22 21:35:00,47.4,35.8,29.89,SW,215,1.0,2.0,64,0.00,,,0.00,Wunderground v.1.15,2013-03-23 01:35:00,
2013-03-22 21:41:00,47.4,36.2,29.89,SW,215,1.0,3.0,65,0.00,,,0.00,Wunderground v.1.15,2013-03-23 01:41:00,
2013-03-22 21:47:00,47.6,36.4,29.89,SW,215,0.0,1.0,65,0.00,,,0.00,Wunderground v.1.15,2013-03-23 01:47:00,
2013-03-22 21:52:00,47.6,36.4,29.89,SW,215,0.0,0.0,65,0.00,,,0.00,Wunderground v.1.15,2013-03-23 01:52:00,
2013-03-22 21:58:00,47.6,36.4,29.89,SW,215,0.0,1.0,65,0.00,,,0.00,Wunderground v.1.15,2013-03-23 01:58:00,
2013-03-22 22:03:00,47.6,36.4,29.90,SW,215,0.0,0.0,65,0.00,,,0.00,Wunderground v.1.15,2013-03-23 02:03:00,
2013-03-22 22:09:00,47.6,36.4,29.90,SW,215,0.0,3.0,65,0.00,,,0.00,Wunderground v.1.15,2013-03-23 02:09:00,
2013-03-22 22:14:00,47.6,36.4,29.90,SW,215,1.0,1.0,65,0.00,,,0.00,Wunderground v.1.15,2013-03-23 02:14:00,
2013-03-22 22:19:00,47.6,36.4,29.90,SW,215,1.0,1.0,65,0.00,,,0.00,Wunderground v.1.15,2013-03-23 02:19:00,
2013-03-22 22:24:00,47.6,36.4,29.90,SW,215,1.0,2.0,65,0.00,,,0.00,Wunderground v.1.15,2013-03-23 02:24:00,
2013-03-22 22:30:00,47.4,36.2,29.90,SW,215,0.0,2.0,65,0.00,,,0.00,Wunderground v.1.15,2013-03-23 02:30:00,
2013-03-22 22:35:00,47.4,36.2,29.90,SW,215,0.0,0.0,65,0.00,,,0.00,Wunderground v.1.15,2013-03-23 02:35:00,
2013-03-22 22:40:00,47.4,36.2,29.90,SW,215,0.0,0.0,65,0.00,,,0.00,Wunderground v.1.15,2013-03-23 02:40:00,
2013-03-22 22:46:00,47.4,36.2,29.90,SW,215,0.0,1.0,65,0.00,,,0.00,Wunderground v.1.15,2013-03-23 02:46:00,
2013-03-22 22:51:00,47.3,36.1,29.90,SW,215,0.0,1.0,65,0.00,,,0.00,Wunderground v.1.15,2013-03-23 02:51:00,
2013-03-22 22:56:00,47.3,36.1,29.90,SW,215,0.0,0.0,65,0.00,,,0.00,Wunderground v.1.15,2013-03-23 02:56:00,
2013-03-22 23:02:00,47.3,36.5,29.91,SW,215,0.0,0.0,66,0.00,,,0.00,Wunderground v.1.15,2013-03-23 03:02:00,
2013-03-22 23:07:00,47.1,36.3,29.91,SW,215,0.0,0.0,66,0.00,,,0.00,Wunderground v.1.15,2013-03-23 03:07:00,
2013-03-22 23:13:00,47.1,36.7,29.91,SW,215,0.0,0.0,67,0.00,,,0.00,Wunderground v.1.15,2013-03-23 03:13:00,
2013-03-22 23:18:00,47.1,36.7,29.90,SW,215,0.0,1.0,67,0.00,,,0.00,Wunderground v.1.15,2013-03-23 03:18:00,
2013-03-22 23:24:00,47.1,36.3,29.90,SW,215,0.0,0.0,66,0.00,,,0.00,Wunderground v.1.15,2013-03-23 03:24:00,
2013-03-22 23:29:00,47.1,36.7,29.89,SW,215,0.0,0.0,67,0.00,,,0.00,Wunderground v.1.15,2013-03-23 03:29:00,
2013-03-22 23:34:00,47.1,36.7,29.89,SW,215,0.0,0.0,67,0.00,,,0.00,Wunderground v.1.15,2013-03-23 03:34:00,
2013-03-22 23:39:00,47.0,36.6,29.89,SW,215,0.0,0.0,67,0.00,,,0.00,Wunderground v.1.15,2013-03-23 03:39:00,
2013-03-22 23:44:00,47.0,37.0,29.89,SW,215,0.0,0.0,68,0.00,,,0.00,Wunderground v.1.15,2013-03-23 03:44:00,
2013-03-22 23:50:00,47.0,37.0,29.89,SW,215,0.0,0.0,68,0.00,,,0.00,Wunderground v.1.15,2013-03-23 03:50:00,
2013-03-22 23:55:00,47.0,37.0,29.89,SW,215,0.0,0.0,68,0.00,,,0.00,Wunderground v.1.15,2013-03-23 03:55:00,